sensor_id;sensor_type;location;lat;lon;timestamp;pressure;altitude;pressure_sealevel;temperature;humidity
52983;BME280;48698;45.736;13.926;2022-09-12T00:03:59;97749.72;;;12.26;100.00
52983;BME280;48698;45.736;13.926;2022-09-12T00:09:08;97750.75;;;12.39;100.00
52983;BME280;48698;45.736;13.926;2022-09-12T00:14:14;97751.06;;;12.94;100.00
52983;BME280;48698;45.736;13.926;2022-09-12T00:19:17;97663.47;;;12.28;100.00
52983;BME280;48698;45.736;13.926;2022-09-12T00:24:21;97737.34;;;12.25;100.00
52983;BME280;48698;45.736;13.926;2022-09-12T00:29:24;97670.94;;;11.90;100.00
52983;BME280;48698;45.736;13.926;2022-09-12T00:34:26;97692.25;;;11.58;100.00
52983;BME280;48698;45.736;13.926;2022-09-12T00:39:29;97573.84;;;11.35;100.00
52983;BME280;48698;45.736;13.926;2022-09-12T00:49:54;97725.22;;;12.80;100.00
52983;BME280;48698;45.736;13.926;2022-09-12T01:00:09;97719.34;;;12.89;100.00
52983;BME280;48698;45.736;13.926;2022-09-12T01:05:16;97668.44;;;12.64;100.00
52983;BME280;48698;45.736;13.926;2022-09-12T01:10:19;97564.56;;;12.05;100.00
52983;BME280;48698;45.736;13.926;2022-09-12T01:15:22;97528.25;;;12.04;100.00
52983;BME280;48698;45.736;13.926;2022-09-12T01:31:11;97580.13;;;12.56;100.00
52983;BME280;48698;45.736;13.926;2022-09-12T01:36:40;97649.25;;;12.73;100.00
52983;BME280;48698;45.736;13.926;2022-09-12T01:42:25;97487.72;;;12.28;100.00
52983;BME280;48698;45.736;13.926;2022-09-12T01:47:52;97675.78;;;13.49;100.00
52983;BME280;48698;45.736;13.926;2022-09-12T01:53:02;97683.75;;;13.20;100.00
52983;BME280;48698;45.736;13.926;2022-09-12T01:59:01;97588.78;;;12.60;100.00
52983;BME280;48698;45.736;13.926;2022-09-12T02:09:05;97621.31;;;12.51;100.00
52983;BME280;48698;45.736;13.926;2022-09-12T02:14:20;97645.88;;;12.56;100.00
52983;BME280;48698;45.736;13.926;2022-09-12T02:19:31;97588.97;;;12.27;100.00
52983;BME280;48698;45.736;13.926;2022-09-12T02:24:38;97535.16;;;12.22;100.00
52983;BME280;48698;45.736;13.926;2022-09-12T02:29:43;97578.25;;;12.28;100.00
52983;BME280;48698;45.736;13.926;2022-09-12T02:35:04;97548.47;;;12.22;100.00
52983;BME280;48698;45.736;13.926;2022-09-12T02:40:10;97576.13;;;12.63;100.00
52983;BME280;48698;45.736;13.926;2022-09-12T02:45:13;97617.50;;;12.84;100.00
52983;BME280;48698;45.736;13.926;2022-09-12T02:50:16;97652.56;;;13.07;100.00
52983;BME280;48698;45.736;13.926;2022-09-12T02:55:20;97637.06;;;13.13;100.00
52983;BME280;48698;45.736;13.926;2022-09-12T03:00:23;97542.44;;;12.48;100.00
52983;BME280;48698;45.736;13.926;2022-09-12T03:21:08;97658.03;;;12.89;100.00
52983;BME280;48698;45.736;13.926;2022-09-12T03:26:26;97620.72;;;12.89;100.00
52983;BME280;48698;45.736;13.926;2022-09-12T03:31:33;97449.38;;;12.03;100.00
52983;BME280;48698;45.736;13.926;2022-09-12T03:36:36;97623.66;;;12.71;100.00
52983;BME280;48698;45.736;13.926;2022-09-12T03:41:39;97655.56;;;12.86;100.00
52983;BME280;48698;45.736;13.926;2022-09-12T03:46:42;97543.34;;;12.03;100.00
52983;BME280;48698;45.736;13.926;2022-09-12T03:51:44;97578.69;;;12.21;100.00
52983;BME280;48698;45.736;13.926;2022-09-12T03:56:47;97580.00;;;12.14;100.00
52983;BME280;48698;45.736;13.926;2022-09-12T04:01:50;97618.78;;;12.63;100.00
52983;BME280;48698;45.736;13.926;2022-09-12T04:06:53;97630.59;;;12.59;100.00
52983;BME280;48698;45.736;13.926;2022-09-12T04:11:56;97677.84;;;13.00;100.00
52983;BME280;48698;45.736;13.926;2022-09-12T04:16:59;97620.63;;;12.77;100.00
52983;BME280;48698;45.736;13.926;2022-09-12T04:22:03;97657.25;;;12.73;100.00
52983;BME280;48698;45.736;13.926;2022-09-12T04:27:06;97613.44;;;12.49;100.00
52983;BME280;48698;45.736;13.926;2022-09-12T04:32:10;97548.72;;;12.17;100.00
52983;BME280;48698;45.736;13.926;2022-09-12T04:37:13;97638.81;;;12.84;100.00
52983;BME280;48698;45.736;13.926;2022-09-12T04:42:17;97652.53;;;12.63;100.00
52983;BME280;48698;45.736;13.926;2022-09-12T04:47:20;97645.19;;;12.82;100.00
52983;BME280;48698;45.736;13.926;2022-09-12T04:52:23;97579.38;;;12.24;100.00
52983;BME280;48698;45.736;13.926;2022-09-12T04:57:25;97605.19;;;12.38;100.00
52983;BME280;48698;45.736;13.926;2022-09-12T05:02:28;97652.03;;;12.86;100.00
52983;BME280;48698;45.736;13.926;2022-09-12T05:07:31;97691.66;;;13.36;100.00
52983;BME280;48698;45.736;13.926;2022-09-12T05:12:34;97533.25;;;12.24;100.00
52983;BME280;48698;45.736;13.926;2022-09-12T05:17:37;97501.50;;;12.21;100.00
52983;BME280;48698;45.736;13.926;2022-09-12T05:22:40;97523.97;;;12.31;100.00
52983;BME280;48698;45.736;13.926;2022-09-12T05:27:42;97626.28;;;13.01;100.00
52983;BME280;48698;45.736;13.926;2022-09-12T05:32:51;97631.22;;;13.07;100.00
52983;BME280;48698;45.736;13.926;2022-09-12T05:37:54;97521.44;;;12.86;100.00
52983;BME280;48698;45.736;13.926;2022-09-12T05:42:56;97679.25;;;13.91;100.00
52983;BME280;48698;45.736;13.926;2022-09-12T05:47:59;97691.34;;;13.97;100.00
52983;BME280;48698;45.736;13.926;2022-09-12T05:53:02;97663.63;;;13.85;100.00
52983;BME280;48698;45.736;13.926;2022-09-12T05:58:05;97648.00;;;13.79;100.00
52983;BME280;48698;45.736;13.926;2022-09-12T06:03:08;97660.59;;;13.91;100.00
52983;BME280;48698;45.736;13.926;2022-09-12T06:08:11;97634.13;;;14.01;100.00
52983;BME280;48698;45.736;13.926;2022-09-12T06:13:14;97726.38;;;14.74;100.00
52983;BME280;48698;45.736;13.926;2022-09-12T06:18:17;97673.22;;;14.70;100.00
52983;BME280;48698;45.736;13.926;2022-09-12T06:23:20;97547.53;;;14.05;100.00
52983;BME280;48698;45.736;13.926;2022-09-12T06:28:23;97578.97;;;14.14;100.00
52983;BME280;48698;45.736;13.926;2022-09-12T06:33:26;97686.66;;;14.68;100.00
52983;BME280;48698;45.736;13.926;2022-09-12T06:38:29;97651.47;;;14.62;100.00
52983;BME280;48698;45.736;13.926;2022-09-12T06:43:33;97530.63;;;14.31;100.00
52983;BME280;48698;45.736;13.926;2022-09-12T06:48:36;97684.47;;;15.52;100.00
52983;BME280;48698;45.736;13.926;2022-09-12T06:53:44;97646.97;;;15.65;100.00
52983;BME280;48698;45.736;13.926;2022-09-12T06:58:48;97698.13;;;16.34;100.00
52983;BME280;48698;45.736;13.926;2022-09-12T07:03:53;97520.66;;;15.47;100.00
52983;BME280;48698;45.736;13.926;2022-09-12T07:08:58;97662.72;;;16.42;100.00
52983;BME280;48698;45.736;13.926;2022-09-12T07:14:03;97697.69;;;17.12;100.00
52983;BME280;48698;45.736;13.926;2022-09-12T07:19:08;97654.13;;;17.65;100.00
52983;BME280;48698;45.736;13.926;2022-09-12T07:24:11;97596.72;;;17.99;100.00
52983;BME280;48698;45.736;13.926;2022-09-12T07:29:15;97686.81;;;18.80;100.00
52983;BME280;48698;45.736;13.926;2022-09-12T07:34:38;97690.25;;;19.02;100.00
52983;BME280;48698;45.736;13.926;2022-09-12T07:39:41;97677.91;;;19.32;100.00
52983;BME280;48698;45.736;13.926;2022-09-12T07:44:43;97674.84;;;19.87;100.00
52983;BME280;48698;45.736;13.926;2022-09-12T07:49:47;97640.53;;;19.99;100.00
52983;BME280;48698;45.736;13.926;2022-09-12T07:54:49;97614.59;;;19.98;100.00
52983;BME280;48698;45.736;13.926;2022-09-12T07:59:52;97625.69;;;20.14;100.00
52983;BME280;48698;45.736;13.926;2022-09-12T08:04:55;97571.03;;;20.02;100.00
52983;BME280;48698;45.736;13.926;2022-09-12T08:09:58;97551.56;;;20.58;100.00
52983;BME280;48698;45.736;13.926;2022-09-12T08:15:02;97651.38;;;21.35;100.00
52983;BME280;48698;45.736;13.926;2022-09-12T08:20:05;97604.06;;;21.11;100.00
52983;BME280;48698;45.736;13.926;2022-09-12T08:25:08;97532.50;;;20.59;100.00
52983;BME280;48698;45.736;13.926;2022-09-12T08:30:11;97649.41;;;20.89;100.00
52983;BME280;48698;45.736;13.926;2022-09-12T08:35:14;97697.69;;;20.82;100.00
52983;BME280;48698;45.736;13.926;2022-09-12T08:40:17;97678.78;;;20.63;100.00
52983;BME280;48698;45.736;13.926;2022-09-12T08:45:42;97513.91;;;19.59;100.00
52983;BME280;48698;45.736;13.926;2022-09-12T08:50:48;97673.41;;;20.92;100.00
52983;BME280;48698;45.736;13.926;2022-09-12T08:55:54;97644.94;;;21.55;100.00
52983;BME280;48698;45.736;13.926;2022-09-12T09:11:57;97705.50;;;23.17;100.00
52983;BME280;48698;45.736;13.926;2022-09-12T09:17:08;97699.09;;;23.80;100.00
52983;BME280;48698;45.736;13.926;2022-09-12T09:32:21;97622.94;;;24.41;73.10
52983;BME280;48698;45.736;13.926;2022-09-12T09:37:37;97673.53;;;24.50;91.08
52983;BME280;48698;45.736;13.926;2022-09-12T09:47:28;97540.66;;;23.82;82.79
52983;BME280;48698;45.736;13.926;2022-09-12T09:52:33;97669.91;;;24.75;76.16
52983;BME280;48698;45.736;13.926;2022-09-12T10:07:25;97628.13;;;24.76;82.62
52983;BME280;48698;45.736;13.926;2022-09-12T10:12:29;97581.00;;;23.34;100.00
52983;BME280;48698;45.736;13.926;2022-09-12T10:45:56;97647.19;;;25.97;79.76
52983;BME280;48698;45.736;13.926;2022-09-12T10:56:12;97639.41;;;25.30;93.73
52983;BME280;48698;45.736;13.926;2022-09-12T11:16:10;97658.72;;;24.02;95.17
52983;BME280;48698;45.736;13.926;2022-09-12T11:32:11;97653.72;;;23.90;100.00
52983;BME280;48698;45.736;13.926;2022-09-12T11:42:37;97651.28;;;23.35;100.00
52983;BME280;48698;45.736;13.926;2022-09-12T11:47:44;97616.50;;;23.05;100.00
52983;BME280;48698;45.736;13.926;2022-09-12T11:52:52;97612.97;;;23.48;100.00
52983;BME280;48698;45.736;13.926;2022-09-12T11:57:57;97623.66;;;23.75;100.00
52983;BME280;48698;45.736;13.926;2022-09-12T12:08:30;97636.59;;;24.65;100.00
52983;BME280;48698;45.736;13.926;2022-09-12T12:13:40;97563.06;;;23.92;100.00
52983;BME280;48698;45.736;13.926;2022-09-12T12:18:54;97635.84;;;24.47;100.00
52983;BME280;48698;45.736;13.926;2022-09-12T12:29:38;97610.47;;;24.56;100.00
52983;BME280;48698;45.736;13.926;2022-09-12T12:34:46;97564.94;;;24.42;100.00
52983;BME280;48698;45.736;13.926;2022-09-12T12:39:58;97585.38;;;24.12;100.00
52983;BME280;48698;45.736;13.926;2022-09-12T12:50:26;97559.09;;;24.21;100.00
52983;BME280;48698;45.736;13.926;2022-09-12T13:00:37;97566.44;;;23.94;100.00
52983;BME280;48698;45.736;13.926;2022-09-12T13:05:47;97482.75;;;23.57;95.69
52983;BME280;48698;45.736;13.926;2022-09-12T13:11:16;97550.53;;;23.99;90.73
52983;BME280;48698;45.736;13.926;2022-09-12T13:16:38;97591.16;;;24.17;100.00
52983;BME280;48698;45.736;13.926;2022-09-12T13:22:08;97399.28;;;23.01;99.97
52983;BME280;48698;45.736;13.926;2022-09-12T13:27:21;97568.81;;;24.31;94.65
52983;BME280;48698;45.736;13.926;2022-09-12T13:32:25;97395.72;;;23.35;100.00
52983;BME280;48698;45.736;13.926;2022-09-12T13:47:46;97514.63;;;24.05;92.96
52983;BME280;48698;45.736;13.926;2022-09-12T13:52:59;97561.75;;;24.54;91.95
52983;BME280;48698;45.736;13.926;2022-09-12T13:58:12;97542.25;;;24.75;95.27
52983;BME280;48698;45.736;13.926;2022-09-12T14:03:28;97543.59;;;24.71;100.00
52983;BME280;48698;45.736;13.926;2022-09-12T14:08:51;97527.59;;;24.28;100.00
52983;BME280;48698;45.736;13.926;2022-09-12T14:13:56;97446.78;;;23.89;97.89
52983;BME280;48698;45.736;13.926;2022-09-12T14:19:00;97509.41;;;24.12;100.00
52983;BME280;48698;45.736;13.926;2022-09-12T14:24:05;97466.44;;;23.91;98.89
52983;BME280;48698;45.736;13.926;2022-09-12T14:29:14;97501.69;;;23.91;100.00
52983;BME280;48698;45.736;13.926;2022-09-12T14:34:19;97468.50;;;24.05;100.00
52983;BME280;48698;45.736;13.926;2022-09-12T14:39:25;97537.00;;;24.07;100.00
52983;BME280;48698;45.736;13.926;2022-09-12T14:44:31;97534.69;;;23.79;100.00
52983;BME280;48698;45.736;13.926;2022-09-12T14:49:36;97361.19;;;22.95;100.00
52983;BME280;48698;45.736;13.926;2022-09-12T14:54:40;97483.88;;;23.89;100.00
52983;BME280;48698;45.736;13.926;2022-09-12T14:59:45;97367.59;;;23.28;100.00
52983;BME280;48698;45.736;13.926;2022-09-12T15:10:32;97426.53;;;23.34;100.00
52983;BME280;48698;45.736;13.926;2022-09-12T15:15:38;97456.75;;;23.89;100.00
52983;BME280;48698;45.736;13.926;2022-09-12T15:20:43;97521.78;;;24.14;100.00
52983;BME280;48698;45.736;13.926;2022-09-12T15:25:47;97480.56;;;23.61;100.00
52983;BME280;48698;45.736;13.926;2022-09-12T15:30:53;97360.25;;;22.78;100.00
52983;BME280;48698;45.736;13.926;2022-09-12T15:35:57;97464.25;;;23.19;100.00
52983;BME280;48698;45.736;13.926;2022-09-12T15:41:01;97469.88;;;23.26;100.00
52983;BME280;48698;45.736;13.926;2022-09-12T15:46:04;97495.91;;;23.44;100.00
52983;BME280;48698;45.736;13.926;2022-09-12T15:51:13;97419.56;;;22.97;100.00
52983;BME280;48698;45.736;13.926;2022-09-12T15:56:18;97524.59;;;23.55;100.00
52983;BME280;48698;45.736;13.926;2022-09-12T16:01:23;97369.69;;;22.31;100.00
52983;BME280;48698;45.736;13.926;2022-09-12T16:06:26;97358.31;;;22.45;100.00
52983;BME280;48698;45.736;13.926;2022-09-12T16:11:37;97316.94;;;22.27;100.00
52983;BME280;48698;45.736;13.926;2022-09-12T16:16:41;97520.50;;;22.99;100.00
52983;BME280;48698;45.736;13.926;2022-09-12T16:21:45;97358.63;;;22.42;100.00
52983;BME280;48698;45.736;13.926;2022-09-12T16:26:48;97519.72;;;23.66;100.00
52983;BME280;48698;45.736;13.926;2022-09-12T16:31:51;97309.25;;;22.40;100.00
52983;BME280;48698;45.736;13.926;2022-09-12T16:36:55;97514.03;;;23.00;100.00
52983;BME280;48698;45.736;13.926;2022-09-12T16:41:58;97475.81;;;22.60;100.00
52983;BME280;48698;45.736;13.926;2022-09-12T16:47:02;97357.28;;;21.85;100.00
52983;BME280;48698;45.736;13.926;2022-09-12T16:52:05;97478.81;;;21.59;100.00
52983;BME280;48698;45.736;13.926;2022-09-12T16:57:10;97511.72;;;21.45;100.00
52983;BME280;48698;45.736;13.926;2022-09-12T17:02:13;97491.78;;;21.19;100.00
52983;BME280;48698;45.736;13.926;2022-09-12T17:07:22;97513.41;;;20.99;100.00
52983;BME280;48698;45.736;13.926;2022-09-12T17:12:26;97469.16;;;19.77;100.00
52983;BME280;48698;45.736;13.926;2022-09-12T17:17:29;97451.53;;;19.24;100.00
52983;BME280;48698;45.736;13.926;2022-09-12T17:22:33;97492.75;;;19.15;100.00
52983;BME280;48698;45.736;13.926;2022-09-12T17:27:37;97373.19;;;18.05;100.00
52983;BME280;48698;45.736;13.926;2022-09-12T17:32:41;97522.69;;;19.00;100.00
52983;BME280;48698;45.736;13.926;2022-09-12T17:37:44;97525.84;;;18.00;100.00
52983;BME280;48698;45.736;13.926;2022-09-12T17:42:48;97394.63;;;17.10;100.00
52983;BME280;48698;45.736;13.926;2022-09-12T17:47:51;97426.56;;;17.13;100.00
52983;BME280;48698;45.736;13.926;2022-09-12T17:52:55;97456.78;;;17.26;100.00
52983;BME280;48698;45.736;13.926;2022-09-12T17:57:59;97546.88;;;16.84;100.00
52983;BME280;48698;45.736;13.926;2022-09-12T18:03:03;97450.59;;;15.66;100.00
52983;BME280;48698;45.736;13.926;2022-09-12T18:08:06;97505.00;;;16.14;100.00
52983;BME280;48698;45.736;13.926;2022-09-12T18:13:11;97517.69;;;16.58;100.00
52983;BME280;48698;45.736;13.926;2022-09-12T18:18:15;97497.22;;;16.22;100.00
52983;BME280;48698;45.736;13.926;2022-09-12T18:23:19;97574.75;;;16.36;100.00
52983;BME280;48698;45.736;13.926;2022-09-12T18:28:24;97409.34;;;15.21;100.00
52983;BME280;48698;45.736;13.926;2022-09-12T18:33:27;97423.06;;;15.04;100.00
52983;BME280;48698;45.736;13.926;2022-09-12T18:38:31;97590.13;;;15.97;100.00
52983;BME280;48698;45.736;13.926;2022-09-12T18:43:35;97596.88;;;15.41;100.00
52983;BME280;48698;45.736;13.926;2022-09-12T18:48:39;97515.81;;;14.65;100.00
52983;BME280;48698;45.736;13.926;2022-09-12T18:53:51;97520.56;;;15.36;100.00
52983;BME280;48698;45.736;13.926;2022-09-12T18:58:55;97485.53;;;15.02;100.00
52983;BME280;48698;45.736;13.926;2022-09-12T19:04:00;97462.59;;;14.49;100.00
52983;BME280;48698;45.736;13.926;2022-09-12T19:09:08;97586.94;;;15.31;100.00
52983;BME280;48698;45.736;13.926;2022-09-12T19:14:12;97598.81;;;15.01;100.00
52983;BME280;48698;45.736;13.926;2022-09-12T19:19:16;97560.84;;;14.84;100.00
52983;BME280;48698;45.736;13.926;2022-09-12T19:24:19;97603.50;;;14.85;100.00
52983;BME280;48698;45.736;13.926;2022-09-12T19:29:23;97535.56;;;14.37;100.00
52983;BME280;48698;45.736;13.926;2022-09-12T19:34:27;97521.97;;;14.28;100.00
52983;BME280;48698;45.736;13.926;2022-09-12T19:39:30;97591.50;;;14.53;100.00
52983;BME280;48698;45.736;13.926;2022-09-12T19:44:34;97438.16;;;13.64;100.00
52983;BME280;48698;45.736;13.926;2022-09-12T19:49:37;97549.16;;;14.47;100.00
52983;BME280;48698;45.736;13.926;2022-09-12T19:54:41;97470.25;;;13.89;100.00
52983;BME280;48698;45.736;13.926;2022-09-12T19:59:45;97442.44;;;14.06;100.00
52983;BME280;48698;45.736;13.926;2022-09-12T20:04:48;97556.97;;;14.50;100.00
52983;BME280;48698;45.736;13.926;2022-09-12T20:09:52;97519.81;;;13.93;100.00
52983;BME280;48698;45.736;13.926;2022-09-12T20:14:58;97490.91;;;13.46;100.00
52983;BME280;48698;45.736;13.926;2022-09-12T20:20:04;97523.00;;;13.86;100.00
52983;BME280;48698;45.736;13.926;2022-09-12T20:25:10;97565.41;;;14.17;100.00
52983;BME280;48698;45.736;13.926;2022-09-12T20:30:15;97607.94;;;13.93;100.00
52983;BME280;48698;45.736;13.926;2022-09-12T20:40:31;97606.59;;;13.86;100.00
52983;BME280;48698;45.736;13.926;2022-09-12T20:45:39;97473.38;;;13.16;100.00
52983;BME280;48698;45.736;13.926;2022-09-12T20:50:43;97537.72;;;13.52;100.00
52983;BME280;48698;45.736;13.926;2022-09-12T20:55:51;97559.41;;;13.60;100.00
52983;BME280;48698;45.736;13.926;2022-09-12T21:00:55;97597.16;;;13.54;100.00
52983;BME280;48698;45.736;13.926;2022-09-12T21:05:59;97562.31;;;13.29;100.00
52983;BME280;48698;45.736;13.926;2022-09-12T21:11:02;97467.88;;;12.48;100.00
52983;BME280;48698;45.736;13.926;2022-09-12T21:16:11;97557.31;;;13.51;100.00
52983;BME280;48698;45.736;13.926;2022-09-12T21:21:15;97608.84;;;14.07;100.00
52983;BME280;48698;45.736;13.926;2022-09-12T21:26:18;97536.00;;;13.37;100.00
52983;BME280;48698;45.736;13.926;2022-09-12T21:31:22;97497.16;;;12.76;100.00
52983;BME280;48698;45.736;13.926;2022-09-12T21:36:26;97611.34;;;13.55;100.00
52983;BME280;48698;45.736;13.926;2022-09-12T21:41:30;97491.47;;;12.54;100.00
52983;BME280;48698;45.736;13.926;2022-09-12T21:46:33;97589.13;;;12.83;100.00
52983;BME280;48698;45.736;13.926;2022-09-12T21:51:37;97564.47;;;12.80;100.00
52983;BME280;48698;45.736;13.926;2022-09-12T21:56:40;97524.03;;;12.87;100.00
52983;BME280;48698;45.736;13.926;2022-09-12T22:01:44;97615.75;;;12.83;100.00
52983;BME280;48698;45.736;13.926;2022-09-12T22:06:47;97580.31;;;13.11;100.00
52983;BME280;48698;45.736;13.926;2022-09-12T22:11:51;97583.84;;;13.12;100.00
52983;BME280;48698;45.736;13.926;2022-09-12T22:16:54;97530.53;;;12.39;100.00
52983;BME280;48698;45.736;13.926;2022-09-12T22:21:59;97461.00;;;12.16;100.00
52983;BME280;48698;45.736;13.926;2022-09-12T22:27:21;97534.28;;;12.79;100.00
52983;BME280;48698;45.736;13.926;2022-09-12T22:32:24;97576.94;;;12.06;100.00
52983;BME280;48698;45.736;13.926;2022-09-12T22:37:28;97593.78;;;12.66;100.00
52983;BME280;48698;45.736;13.926;2022-09-12T22:42:31;97514.66;;;12.38;100.00
52983;BME280;48698;45.736;13.926;2022-09-12T22:47:36;97553.00;;;12.50;100.00
52983;BME280;48698;45.736;13.926;2022-09-12T22:52:39;97500.28;;;12.40;100.00
52983;BME280;48698;45.736;13.926;2022-09-12T22:57:43;97397.97;;;11.72;100.00
52983;BME280;48698;45.736;13.926;2022-09-12T23:02:47;97511.06;;;12.39;100.00
52983;BME280;48698;45.736;13.926;2022-09-12T23:07:50;97489.97;;;11.76;100.00
52983;BME280;48698;45.736;13.926;2022-09-12T23:12:54;97557.31;;;12.52;100.00
52983;BME280;48698;45.736;13.926;2022-09-12T23:17:58;97597.72;;;12.88;100.00
52983;BME280;48698;45.736;13.926;2022-09-12T23:23:01;97573.66;;;12.01;100.00
52983;BME280;48698;45.736;13.926;2022-09-12T23:28:05;97574.53;;;12.31;100.00
52983;BME280;48698;45.736;13.926;2022-09-12T23:33:09;97476.16;;;12.00;100.00
52983;BME280;48698;45.736;13.926;2022-09-12T23:38:13;97481.63;;;11.97;100.00
52983;BME280;48698;45.736;13.926;2022-09-12T23:43:17;97533.88;;;12.43;100.00
52983;BME280;48698;45.736;13.926;2022-09-12T23:48:20;97563.56;;;12.51;100.00
52983;BME280;48698;45.736;13.926;2022-09-12T23:53:24;97569.28;;;12.45;100.00
52983;BME280;48698;45.736;13.926;2022-09-12T23:58:29;97547.28;;;12.41;100.00
